createdAt,value
2022-12-15T00:02:36.536Z,97635.20
2022-12-15T00:05:23.916Z,97633.14
2022-12-15T00:08:12.826Z,97636.98
2022-12-15T00:10:59.574Z,97637.01
2022-12-15T00:13:46.243Z,97638.78
2022-12-15T00:16:33.210Z,97639.64
2022-12-15T00:19:19.789Z,97639.92
2022-12-15T00:22:06.674Z,97642.52
2022-12-15T00:24:54.139Z,97645.61
2022-12-15T00:27:41.248Z,97648.06
2022-12-15T00:30:29.867Z,97654.63
2022-12-15T00:33:16.791Z,97653.17
2022-12-15T00:36:03.621Z,97654.60
2022-12-15T00:38:44.439Z,97655.61
2022-12-15T00:41:17.903Z,97655.10
2022-12-15T00:43:46.566Z,97655.66
2022-12-15T00:46:33.830Z,97654.22
2022-12-15T00:49:03.477Z,97657.66
2022-12-15T00:51:50.404Z,97658.02
2022-12-15T00:54:37.339Z,97658.45
2022-12-15T00:57:24.331Z,97654.19
2022-12-15T01:00:11.254Z,97650.81
2022-12-15T01:02:58.243Z,97651.08
2022-12-15T01:05:45.356Z,97648.64
2022-12-15T01:08:32.223Z,97647.92
2022-12-15T01:11:19.820Z,97658.69
2022-12-15T01:14:08.323Z,97664.06
2022-12-15T01:16:55.155Z,97663.44
2022-12-15T01:19:42.101Z,97666.88
2022-12-15T01:22:10.523Z,97673.02
2022-12-15T01:24:38.716Z,97679.77
2022-12-15T01:27:06.936Z,97677.56
2022-12-15T01:29:35.222Z,97675.77
2022-12-15T01:32:03.387Z,97670.04
2022-12-15T01:34:31.721Z,97671.61
2022-12-15T01:37:00.006Z,97670.91
2022-12-15T01:39:51.380Z,97676.40
2022-12-15T01:42:19.781Z,97675.80
2022-12-15T01:44:51.354Z,97679.20
2022-12-15T01:47:24.941Z,97677.94
2022-12-15T01:49:54.627Z,97680.35
2022-12-15T01:52:22.692Z,97675.38
2022-12-15T01:54:55.719Z,97680.02
2022-12-15T01:57:31.739Z,97681.58
2022-12-15T02:00:02.736Z,97680.27
2022-12-15T02:03:08.185Z,97677.80
2022-12-15T02:05:37.248Z,97674.63
2022-12-15T02:08:07.306Z,97679.45
2022-12-15T02:10:45.355Z,97683.46
2022-12-15T02:13:25.656Z,97690.73
2022-12-15T02:16:19.028Z,97691.17
2022-12-15T02:19:09.234Z,97691.14
2022-12-15T02:22:02.853Z,97693.86
2022-12-15T02:24:46.002Z,97698.27
2022-12-15T02:28:13.905Z,97701.18
2022-12-15T02:31:09.826Z,97709.02
2022-12-15T02:33:45.172Z,97714.43
2022-12-15T02:36:29.226Z,97717.64
2022-12-15T02:38:57.687Z,97726.02
2022-12-15T02:41:53.159Z,97728.20
2022-12-15T02:44:30.714Z,97729.23
2022-12-15T02:47:16.901Z,97737.36
2022-12-15T02:50:12.910Z,97739.77
2022-12-15T02:52:50.112Z,97744.09
2022-12-15T02:55:55.839Z,97749.84
2022-12-15T02:58:42.449Z,97747.72
2022-12-15T03:01:22.340Z,97753.52
2022-12-15T03:03:52.044Z,97756.73
2022-12-15T03:06:20.500Z,97757.85
2022-12-15T03:08:48.637Z,97756.86
2022-12-15T03:11:17.312Z,97761.64
2022-12-15T03:13:45.438Z,97759.39
2022-12-15T03:16:13.815Z,97761.02
2022-12-15T03:18:44.911Z,97763.36
2022-12-15T03:21:13.449Z,97762.15
2022-12-15T03:23:41.797Z,97765.84
2022-12-15T03:26:10.071Z,97767.36
2022-12-15T03:28:38.246Z,97771.86
2022-12-15T03:31:06.477Z,97773.29
2022-12-15T03:33:35.258Z,97778.79
2022-12-15T03:36:03.761Z,97782.33
2022-12-15T03:38:31.999Z,97783.30
2022-12-15T03:41:00.158Z,97785.66
2022-12-15T03:43:28.943Z,97783.86
2022-12-15T03:45:58.057Z,97792.02
2022-12-15T03:48:26.469Z,97796.36
2022-12-15T03:50:55.289Z,97795.80
2022-12-15T03:53:23.466Z,97799.80
2022-12-15T03:55:51.881Z,97799.27
2022-12-15T03:58:19.976Z,97805.30
2022-12-15T04:00:48.681Z,97808.41
2022-12-15T04:03:16.963Z,97810.42
2022-12-15T04:05:45.205Z,97813.58
2022-12-15T04:08:13.488Z,97818.87
2022-12-15T04:10:43.636Z,97826.95
2022-12-15T04:13:12.010Z,97833.73
2022-12-15T04:15:41.039Z,97839.15
2022-12-15T04:18:10.997Z,97841.42
2022-12-15T04:20:40.271Z,97840.59
2022-12-15T04:23:08.606Z,97840.31
2022-12-15T04:25:56.570Z,97838.21
2022-12-15T04:28:43.233Z,97843.59
2022-12-15T04:31:45.997Z,97849.41
2022-12-15T04:34:36.652Z,97855.85
2022-12-15T04:37:26.467Z,97861.08
2022-12-15T04:40:14.077Z,97863.58
2022-12-15T04:43:05.746Z,97872.06
2022-12-15T04:45:52.620Z,97875.70
2022-12-15T04:48:39.262Z,97879.14
2022-12-15T04:51:26.458Z,97882.80
2022-12-15T04:54:13.342Z,97876.38
2022-12-15T04:57:00.282Z,97876.52
2022-12-15T04:59:47.156Z,97880.30
2022-12-15T05:02:34.006Z,97880.80
2022-12-15T05:05:23.879Z,97892.77
2022-12-15T05:08:10.959Z,97895.46
2022-12-15T05:10:57.490Z,97897.77
2022-12-15T05:13:44.964Z,97901.39
2022-12-15T05:16:31.572Z,97908.31
2022-12-15T05:19:18.528Z,97913.50
2022-12-15T05:22:05.801Z,97917.93
2022-12-15T05:24:52.776Z,97919.73
2022-12-15T05:27:39.533Z,97927.76
2022-12-15T05:30:27.039Z,97932.48
2022-12-15T05:32:55.371Z,97934.64
2022-12-15T05:35:23.681Z,97939.27
2022-12-15T05:37:51.918Z,97937.27
2022-12-15T05:40:20.175Z,97939.00
2022-12-15T05:42:49.935Z,97942.95
2022-12-15T05:45:18.634Z,97949.52
2022-12-15T05:47:51.652Z,97949.33
2022-12-15T05:50:20.382Z,97953.98
2022-12-15T05:52:51.629Z,97962.16
2022-12-15T05:55:19.844Z,97971.70
2022-12-15T05:57:55.076Z,97981.35
2022-12-15T06:00:23.470Z,97980.95
2022-12-15T06:02:51.610Z,97986.90
2022-12-15T06:05:20.190Z,97990.09
2022-12-15T06:07:48.496Z,97994.34
2022-12-15T06:10:16.512Z,97998.38
2022-12-15T06:12:44.776Z,98006.98
2022-12-15T06:15:13.089Z,98009.87
2022-12-15T06:17:41.244Z,98020.61
2022-12-15T06:20:09.816Z,98025.50
2022-12-15T06:22:38.358Z,98027.36
2022-12-15T06:25:06.859Z,98031.98
2022-12-15T06:27:37.058Z,98034.80
2022-12-15T06:30:06.111Z,98041.91
2022-12-15T06:32:35.909Z,98049.77
2022-12-15T06:35:04.561Z,98048.34
2022-12-15T06:37:32.926Z,98054.39
2022-12-15T06:40:01.001Z,98065.91
2022-12-15T06:42:29.270Z,98075.45
2022-12-15T06:44:57.439Z,98080.30
2022-12-15T06:47:25.518Z,98086.50
2022-12-15T06:49:54.138Z,98077.40
2022-12-15T06:52:22.426Z,98082.56
2022-12-15T06:54:50.633Z,98087.49
2022-12-15T06:57:18.850Z,98088.21
2022-12-15T06:59:47.270Z,98090.66
2022-12-15T07:02:17.381Z,98098.95
2022-12-15T07:04:46.820Z,98103.52
2022-12-15T07:07:15.393Z,98108.56
2022-12-15T07:09:43.527Z,98115.00
2022-12-15T07:12:12.775Z,98115.38
2022-12-15T07:14:41.150Z,98115.98
2022-12-15T07:17:11.218Z,98118.16
2022-12-15T07:19:39.488Z,98120.13
2022-12-15T07:22:07.727Z,98122.34
2022-12-15T07:24:35.814Z,98121.44
2022-12-15T07:27:04.118Z,98127.70
2022-12-15T07:29:32.275Z,98129.38
2022-12-15T07:32:02.018Z,98128.70
2022-12-15T07:34:30.341Z,98131.99
2022-12-15T07:36:59.425Z,98147.30
2022-12-15T07:39:27.849Z,98156.90
2022-12-15T07:41:56.125Z,98157.90
2022-12-15T07:44:24.563Z,98164.09
2022-12-15T07:46:52.705Z,98169.70
2022-12-15T07:49:21.669Z,98176.30
2022-12-15T07:51:49.967Z,98176.39
2022-12-15T07:54:18.216Z,98180.77
2022-12-15T07:56:50.379Z,98193.16
2022-12-15T07:59:19.901Z,98192.69
2022-12-15T08:01:48.295Z,98202.82
2022-12-15T08:04:16.684Z,98208.06
2022-12-15T08:06:46.016Z,98218.45
2022-12-15T08:09:14.172Z,98218.58
2022-12-15T08:11:43.233Z,98216.15
2022-12-15T08:14:16.968Z,98211.77
2022-12-15T08:16:46.087Z,98215.00
2022-12-15T08:19:15.554Z,98222.16
2022-12-15T08:21:48.471Z,98225.33
2022-12-15T08:24:17.486Z,98237.77
2022-12-15T08:26:49.950Z,98243.83
2022-12-15T08:32:07.728Z,98249.79
2022-12-15T08:34:36.037Z,98249.98
2022-12-15T08:37:04.374Z,98258.80
2022-12-15T08:39:32.493Z,98262.79
2022-12-15T08:42:01.020Z,98264.61
2022-12-15T08:44:29.183Z,98268.95
2022-12-15T08:46:57.249Z,98273.41
2022-12-15T08:49:26.065Z,98272.81
2022-12-15T08:51:54.176Z,98278.52
2022-12-15T08:54:22.337Z,98279.86
2022-12-15T08:56:50.946Z,98281.13
2022-12-15T08:59:19.531Z,98281.30
2022-12-15T09:01:48.212Z,98284.91
2022-12-15T09:04:18.106Z,98288.77
2022-12-15T09:06:50.612Z,98294.39
2022-12-15T09:09:19.987Z,98294.20
2022-12-15T09:11:48.706Z,98293.41
2022-12-15T09:14:18.973Z,98297.48
2022-12-15T09:16:50.499Z,98300.21
2022-12-15T09:19:19.326Z,98295.77
2022-12-15T09:21:48.367Z,98298.41
2022-12-15T09:24:26.084Z,98295.71
2022-12-15T09:27:00.679Z,98300.26
2022-12-15T09:29:29.177Z,98303.77
2022-12-15T09:31:57.338Z,98300.80
2022-12-15T09:34:27.099Z,98296.80
2022-12-15T09:36:55.676Z,98297.56
2022-12-15T09:39:23.809Z,98303.37
2022-12-15T09:41:55.869Z,98307.25
2022-12-15T09:44:26.246Z,98309.46
2022-12-15T09:47:12.432Z,98307.28
2022-12-15T09:49:49.970Z,98310.85
2022-12-15T09:52:22.716Z,98313.65
2022-12-15T09:54:51.388Z,98317.05
2022-12-15T09:57:23.883Z,98320.30
2022-12-15T10:00:06.435Z,98317.27
2022-12-15T10:03:15.112Z,98322.10
2022-12-15T10:06:21.081Z,98325.11
2022-12-15T10:09:00.687Z,98325.52
2022-12-15T10:11:34.808Z,98327.95
2022-12-15T10:14:11.769Z,98329.05
2022-12-15T10:16:47.908Z,98332.40
2022-12-15T10:19:37.053Z,98334.47
2022-12-15T10:22:05.625Z,98331.94
2022-12-15T10:27:56.902Z,98339.12
2022-12-15T10:30:25.353Z,98344.01
2022-12-15T10:33:09.524Z,98342.23
2022-12-15T10:35:39.807Z,98342.36
2022-12-15T10:38:21.395Z,98339.56
2022-12-15T10:40:59.446Z,98339.77
2022-12-15T10:43:39.714Z,98346.16
2022-12-15T10:46:11.110Z,98356.12
2022-12-15T10:48:41.384Z,98359.36
2022-12-15T10:51:15.688Z,98358.85
2022-12-15T10:53:51.377Z,98358.63
2022-12-15T10:56:32.363Z,98361.16
2022-12-15T10:59:21.398Z,98363.54
2022-12-15T11:01:50.812Z,98361.33
2022-12-15T11:04:31.502Z,98361.02
2022-12-15T11:07:02.720Z,98362.39
2022-12-15T11:09:39.313Z,98366.91
2022-12-15T11:12:37.870Z,98370.36
2022-12-15T11:15:32.521Z,98372.27
2022-12-15T11:18:29.495Z,98374.16
2022-12-15T11:21:02.931Z,98375.38
2022-12-15T11:23:52.257Z,98376.33
2022-12-15T11:26:26.690Z,98378.88
2022-12-15T11:29:01.381Z,98386.96
2022-12-15T11:31:38.618Z,98392.13
2022-12-15T11:34:31.153Z,98399.84
2022-12-15T11:37:10.511Z,98405.21
2022-12-15T11:39:44.264Z,98405.13
2022-12-15T11:42:13.911Z,98403.85
2022-12-15T11:44:58.775Z,98413.21
2022-12-15T11:47:30.035Z,98407.36
2022-12-15T11:50:08.806Z,98410.36
2022-12-15T11:53:09.958Z,98414.22
2022-12-15T11:56:08.548Z,98420.00
2022-12-15T11:59:04.962Z,98422.81
2022-12-15T12:01:46.974Z,98430.73
2022-12-15T12:04:26.261Z,98434.55
2022-12-15T12:07:16.422Z,98437.63
2022-12-15T12:10:18.960Z,98435.80
2022-12-15T12:12:57.077Z,98437.80
2022-12-15T12:15:25.577Z,98435.09
2022-12-15T12:17:58.944Z,98434.16
2022-12-15T12:20:40.056Z,98435.38
2022-12-15T12:23:24.314Z,98436.52
2022-12-15T12:26:11.688Z,98444.84
2022-12-15T12:29:00.183Z,98448.92
2022-12-15T12:31:52.201Z,98451.05
2022-12-15T12:34:29.585Z,98457.96
2022-12-15T12:37:28.331Z,98451.26
2022-12-15T12:40:02.534Z,98453.52
2022-12-15T12:42:49.613Z,98459.91
2022-12-15T12:45:20.252Z,98467.05
2022-12-15T12:47:53.389Z,98472.52
2022-12-15T12:50:25.925Z,98478.28
2022-12-15T12:53:03.466Z,98484.64
2022-12-15T12:55:41.301Z,98492.30
2022-12-15T12:58:42.774Z,98492.15
2022-12-15T13:01:10.917Z,98491.86
2022-12-15T13:03:41.713Z,98496.16
2022-12-15T13:06:41.691Z,98499.42
2022-12-15T13:09:21.748Z,98495.61
2022-12-15T13:11:51.322Z,98493.52
2022-12-15T13:14:36.409Z,98489.02
2022-12-15T13:17:27.225Z,98493.76
2022-12-15T13:19:58.606Z,98492.70
2022-12-15T13:22:30.286Z,98490.55
2022-12-15T13:24:58.603Z,98494.79
2022-12-15T13:27:38.537Z,98498.10
2022-12-15T13:30:09.333Z,98496.48
2022-12-15T13:32:55.608Z,98492.89
2022-12-15T13:35:31.442Z,98489.79
2022-12-15T13:38:03.905Z,98487.51
2022-12-15T13:40:51.910Z,98490.56
2022-12-15T13:43:32.394Z,98486.90
2022-12-15T13:46:33.482Z,98487.20
2022-12-15T13:49:27.744Z,98487.41
2022-12-15T13:52:03.432Z,98493.41
2022-12-15T13:54:35.744Z,98496.11
2022-12-15T13:57:14.473Z,98490.92
2022-12-15T13:59:49.459Z,98484.79
2022-12-15T14:02:29.682Z,98486.78
2022-12-15T14:05:22.811Z,98493.14
2022-12-15T14:07:58.284Z,98504.58
2022-12-15T14:10:33.549Z,98512.52
2022-12-15T14:13:16.171Z,98513.16
2022-12-15T14:15:52.602Z,98508.46
2022-12-15T14:18:33.320Z,98507.89
2022-12-15T14:21:06.526Z,98514.55
2022-12-15T14:24:11.426Z,98512.42
2022-12-15T14:26:33.762Z,98509.30
2022-12-15T14:29:05.663Z,98510.23
2022-12-15T14:31:37.330Z,98513.05
2022-12-15T14:34:30.577Z,98508.11
2022-12-15T14:37:03.581Z,98513.21
2022-12-15T14:39:45.047Z,98515.34
2022-12-15T14:42:23.812Z,98522.77
2022-12-15T14:44:57.690Z,98523.27
2022-12-15T14:47:34.733Z,98527.41
2022-12-15T14:50:09.663Z,98530.21
2022-12-15T14:52:42.071Z,98532.36
2022-12-15T14:55:32.303Z,98542.98
2022-12-15T14:58:01.613Z,98545.76
2022-12-15T15:00:34.035Z,98541.42
2022-12-15T15:03:25.519Z,98544.80
2022-12-15T15:05:57.578Z,98554.08
2022-12-15T15:08:32.884Z,98557.45
2022-12-15T15:11:19.726Z,98565.29
2022-12-15T15:13:48.409Z,98558.64
2022-12-15T15:16:19.314Z,98560.34
2022-12-15T15:18:53.270Z,98564.12
2022-12-15T15:21:25.385Z,98570.45
2022-12-15T15:24:11.932Z,98576.58
2022-12-15T15:26:40.463Z,98577.42
2022-12-15T15:29:32.546Z,98584.11
2022-12-15T15:32:22.688Z,98593.30
2022-12-15T15:34:51.395Z,98595.39
2022-12-15T15:37:29.351Z,98592.93
2022-12-15T15:39:57.451Z,98585.13
2022-12-15T15:42:32.272Z,98590.02
2022-12-15T15:45:01.427Z,98595.05
2022-12-15T15:47:29.715Z,98596.63
2022-12-15T15:49:59.828Z,98599.38
2022-12-15T15:52:30.000Z,98600.30
2022-12-15T15:54:59.396Z,98599.06
2022-12-15T15:57:27.494Z,98600.00
2022-12-15T15:59:56.043Z,98597.56
2022-12-15T16:02:24.411Z,98603.25
2022-12-15T16:04:52.639Z,98612.44
2022-12-15T16:07:27.915Z,98612.21
2022-12-15T16:09:56.925Z,98618.66
2022-12-15T16:12:36.480Z,98622.80
2022-12-15T16:15:17.306Z,98621.54
2022-12-15T16:17:46.971Z,98617.60
2022-12-15T16:20:18.302Z,98618.13
2022-12-15T16:22:51.445Z,98618.81
2022-12-15T16:25:25.706Z,98609.70
2022-12-15T16:27:54.298Z,98607.50
2022-12-15T16:30:26.036Z,98610.45
2022-12-15T16:32:56.321Z,98621.08
2022-12-15T16:35:26.385Z,98621.80
2022-12-15T16:37:54.937Z,98625.80
2022-12-15T16:40:26.025Z,98625.02
2022-12-15T16:42:58.350Z,98628.12
2022-12-15T16:45:29.073Z,98627.08
2022-12-15T16:47:58.246Z,98626.27
2022-12-15T16:50:38.399Z,98625.43
2022-12-15T16:53:09.931Z,98613.58
2022-12-15T16:55:40.053Z,98608.86
2022-12-15T16:58:15.738Z,98607.23
2022-12-15T17:00:44.958Z,98604.01
2022-12-15T17:03:18.763Z,98608.79
2022-12-15T17:05:52.431Z,98606.52
2022-12-15T17:08:29.181Z,98611.26
2022-12-15T17:10:57.687Z,98610.92
2022-12-15T17:13:40.515Z,98608.73
2022-12-15T17:16:14.381Z,98605.88
2022-12-15T17:18:44.609Z,98611.25
2022-12-15T17:21:35.482Z,98611.09
2022-12-15T17:24:12.570Z,98612.84
2022-12-15T17:26:42.401Z,98623.40
2022-12-15T17:29:20.287Z,98631.83
2022-12-15T17:31:48.649Z,98639.75
2022-12-15T17:34:27.921Z,98640.69
2022-12-15T17:37:02.361Z,98646.30
2022-12-15T17:39:32.640Z,98646.91
2022-12-15T17:42:02.067Z,98650.11
2022-12-15T17:44:36.224Z,98650.89
2022-12-15T17:47:06.955Z,98652.29
2022-12-15T17:49:38.368Z,98644.80
2022-12-15T17:52:29.293Z,98637.79
2022-12-15T17:54:57.941Z,98636.77
2022-12-15T17:57:26.313Z,98636.52
2022-12-15T17:59:54.389Z,98635.20
2022-12-15T18:02:23.038Z,98638.68
2022-12-15T18:04:51.630Z,98644.64
2022-12-15T18:07:22.056Z,98656.34
2022-12-15T18:09:52.265Z,98662.24
2022-12-15T18:12:26.889Z,98667.67
2022-12-15T18:14:56.908Z,98665.45
2022-12-15T18:17:25.321Z,98661.87
2022-12-15T18:19:53.535Z,98663.67
2022-12-15T18:22:24.960Z,98662.14
2022-12-15T18:24:54.596Z,98661.43
2022-12-15T18:27:25.909Z,98660.85
2022-12-15T18:29:54.562Z,98658.30
2022-12-15T18:32:25.652Z,98661.08
2022-12-15T18:34:55.106Z,98663.45
2022-12-15T18:37:25.242Z,98659.00
2022-12-15T18:39:54.228Z,98652.17
2022-12-15T18:42:24.597Z,98649.43
2022-12-15T18:44:53.524Z,98647.64
2022-12-15T18:47:23.758Z,98642.59
2022-12-15T18:49:52.617Z,98634.39
2022-12-15T18:52:23.287Z,98635.70
2022-12-15T18:54:54.007Z,98632.81
2022-12-15T18:57:30.092Z,98624.80
2022-12-15T19:00:01.984Z,98616.27
2022-12-15T19:02:33.525Z,98615.83
2022-12-15T19:05:01.902Z,98625.85
2022-12-15T19:07:30.483Z,98628.94
2022-12-15T19:09:59.033Z,98634.98
2022-12-15T19:12:27.194Z,98635.10
2022-12-15T19:14:55.558Z,98633.48
2022-12-15T19:17:43.279Z,98636.52
2022-12-15T19:20:38.292Z,98643.42
2022-12-15T19:23:07.226Z,98656.11
2022-12-15T19:25:35.638Z,98660.02
2022-12-15T19:28:04.363Z,98653.02
2022-12-15T19:30:38.574Z,98648.54
2022-12-15T19:33:08.473Z,98644.54
2022-12-15T19:35:38.252Z,98648.95
2022-12-15T19:38:07.880Z,98648.20
2022-12-15T19:40:37.355Z,98645.75
2022-12-15T19:43:05.754Z,98652.36
2022-12-15T19:45:33.940Z,98651.16
2022-12-15T19:48:02.191Z,98655.73
2022-12-15T19:50:36.947Z,98664.04
2022-12-15T19:53:27.487Z,98660.95
2022-12-15T19:55:58.861Z,98659.54
2022-12-15T19:58:32.710Z,98655.94
2022-12-15T20:01:05.298Z,98657.48
2022-12-15T20:03:37.795Z,98659.30
2022-12-15T20:06:14.521Z,98655.58
2022-12-15T20:08:45.957Z,98650.54
2022-12-15T20:11:30.323Z,98645.64
2022-12-15T20:13:59.042Z,98646.02
2022-12-15T20:16:27.973Z,98645.31
2022-12-15T20:18:56.224Z,98647.55
2022-12-15T20:21:31.684Z,98641.14
2022-12-15T20:24:05.370Z,98643.60
2022-12-15T20:26:34.759Z,98647.77
2022-12-15T20:29:03.053Z,98645.80
2022-12-15T20:31:31.498Z,98649.76
2022-12-15T20:33:59.733Z,98650.79
2022-12-15T20:36:30.579Z,98650.01
2022-12-15T20:38:58.703Z,98651.19
2022-12-15T20:41:29.465Z,98645.38
2022-12-15T20:43:58.905Z,98642.88
2022-12-15T20:46:33.437Z,98640.48
2022-12-15T20:49:02.288Z,98649.08
2022-12-15T20:51:34.739Z,98650.17
2022-12-15T20:54:02.989Z,98654.10
2022-12-15T20:56:31.163Z,98651.95
2022-12-15T20:58:59.611Z,98643.42
2022-12-15T21:01:33.583Z,98639.90
2022-12-15T21:04:10.556Z,98642.34
2022-12-15T21:06:38.968Z,98641.63
2022-12-15T21:09:13.510Z,98643.41
2022-12-15T21:11:41.860Z,98642.89
2022-12-15T21:14:17.547Z,98637.84
2022-12-15T21:16:46.037Z,98632.91
2022-12-15T21:19:23.263Z,98637.77
2022-12-15T21:21:54.897Z,98636.28
2022-12-15T21:24:28.639Z,98629.61
2022-12-15T21:26:56.870Z,98630.86
2022-12-15T21:29:27.887Z,98627.46
2022-12-15T21:31:55.899Z,98634.39
2022-12-15T21:34:24.045Z,98639.83
2022-12-15T21:36:55.305Z,98639.90
2022-12-15T21:39:30.154Z,98638.34
2022-12-15T21:42:13.227Z,98642.05
2022-12-15T21:44:41.822Z,98645.34
2022-12-15T21:47:23.996Z,98648.48
2022-12-15T21:49:53.029Z,98649.06
2022-12-15T21:52:25.688Z,98644.70
2022-12-15T21:54:53.696Z,98644.41
2022-12-15T21:57:23.039Z,98649.20
2022-12-15T21:59:51.084Z,98647.00
2022-12-15T22:02:26.729Z,98642.30
2022-12-15T22:04:55.719Z,98640.97
2022-12-15T22:07:23.962Z,98638.34
2022-12-15T22:09:52.198Z,98642.58
2022-12-15T22:12:24.076Z,98642.48
2022-12-15T22:14:52.259Z,98641.98
2022-12-15T22:17:22.435Z,98639.67
2022-12-15T22:19:50.762Z,98641.90
2022-12-15T22:22:18.972Z,98636.35
2022-12-15T22:24:48.274Z,98633.52
2022-12-15T22:27:22.243Z,98635.89
2022-12-15T22:29:50.641Z,98635.33
2022-12-15T22:32:18.725Z,98636.38
2022-12-15T22:34:46.791Z,98632.70
2022-12-15T22:37:15.893Z,98632.48
2022-12-15T22:39:43.981Z,98634.74
2022-12-15T22:42:16.759Z,98635.96
2022-12-15T22:44:45.495Z,98630.45
2022-12-15T22:47:13.682Z,98627.34
2022-12-15T22:49:42.289Z,98626.92
2022-12-15T22:52:19.047Z,98625.20
2022-12-15T22:54:47.872Z,98623.06
2022-12-15T22:57:28.601Z,98612.45
2022-12-15T23:00:04.131Z,98609.39
2022-12-15T23:02:36.427Z,98598.26
2022-12-15T23:05:06.037Z,98595.33
2022-12-15T23:07:35.641Z,98598.52
2022-12-15T23:10:23.507Z,98596.11
2022-12-15T23:12:54.513Z,98593.17
2022-12-15T23:15:41.902Z,98597.14
2022-12-15T23:18:10.982Z,98596.80
2022-12-15T23:20:39.213Z,98596.23
2022-12-15T23:23:08.418Z,98592.61
2022-12-15T23:25:36.709Z,98589.27
2022-12-15T23:28:05.437Z,98589.59
2022-12-15T23:30:33.599Z,98586.23
2022-12-15T23:33:01.989Z,98584.24
2022-12-15T23:35:30.047Z,98584.23
2022-12-15T23:37:58.716Z,98583.92
2022-12-15T23:40:27.094Z,98587.75
2022-12-15T23:42:55.581Z,98587.67
2022-12-15T23:45:23.749Z,98579.95
2022-12-15T23:47:52.001Z,98574.38
2022-12-15T23:50:22.259Z,98572.17
2022-12-15T23:52:51.461Z,98570.55
2022-12-15T23:55:20.393Z,98571.02
2022-12-15T23:57:48.595Z,98566.65
